createdAt,value
2022-10-24T00:00:58.600Z,93.97
2022-10-24T00:03:49.113Z,95.53
2022-10-24T00:06:37.017Z,97.30
2022-10-24T00:09:24.944Z,97.36
2022-10-24T00:12:13.066Z,100.00
2022-10-24T00:15:01.665Z,100.00
2022-10-24T00:17:49.648Z,100.00
2022-10-24T00:20:39.084Z,99.73
2022-10-24T00:23:27.124Z,94.06
2022-10-24T00:26:16.728Z,89.80
2022-10-24T00:29:05.430Z,90.06
2022-10-24T00:31:53.326Z,89.74
2022-10-24T00:34:41.600Z,87.06
2022-10-24T00:37:30.855Z,84.39
2022-10-24T00:40:20.798Z,84.38
2022-10-24T00:43:15.124Z,84.60
2022-10-24T00:46:03.494Z,85.39
2022-10-24T00:48:54.658Z,84.31
2022-10-24T00:51:43.548Z,85.44
2022-10-24T00:54:32.837Z,86.57
2022-10-24T00:57:26.134Z,82.89
2022-10-24T01:00:17.527Z,82.90
2022-10-24T01:03:05.515Z,83.80
2022-10-24T01:06:10.507Z,80.04
2022-10-24T01:09:10.582Z,82.61
2022-10-24T01:12:20.016Z,79.98
2022-10-24T01:15:15.730Z,81.91
2022-10-24T01:18:11.001Z,84.09
2022-10-24T01:21:11.902Z,86.73
2022-10-24T01:24:15.496Z,84.05
2022-10-24T01:27:26.354Z,84.09
2022-10-24T01:30:18.320Z,84.22
2022-10-24T01:33:11.263Z,83.96
2022-10-24T01:36:04.360Z,80.38
2022-10-24T01:38:58.915Z,78.48
2022-10-24T01:41:48.869Z,79.87
2022-10-24T01:44:40.530Z,83.21
2022-10-24T01:47:43.150Z,78.70
2022-10-24T01:50:34.975Z,79.04
2022-10-24T01:53:25.159Z,82.80
2022-10-24T01:56:13.259Z,82.74
2022-10-24T01:59:06.664Z,81.66
2022-10-24T02:01:56.457Z,79.83
2022-10-24T02:04:51.440Z,82.00
2022-10-24T02:07:41.997Z,78.60
2022-10-24T02:10:33.651Z,78.86
2022-10-24T02:13:29.746Z,80.04
2022-10-24T02:16:20.162Z,79.95
2022-10-24T02:19:08.110Z,76.95
2022-10-24T02:22:07.599Z,79.99
2022-10-24T02:24:59.908Z,76.27
2022-10-24T02:27:54.324Z,78.08
2022-10-24T02:30:47.659Z,78.89
2022-10-24T02:33:36.935Z,77.73
2022-10-24T02:36:28.728Z,76.67
2022-10-24T02:39:19.782Z,74.83
2022-10-24T02:42:09.568Z,75.92
2022-10-24T02:44:58.438Z,78.65
2022-10-24T02:47:48.604Z,77.58
2022-10-24T02:50:38.377Z,77.58
2022-10-24T02:53:27.076Z,83.86
2022-10-24T02:56:16.338Z,77.66
2022-10-24T02:59:04.348Z,88.27
2022-10-24T03:01:52.433Z,84.81
2022-10-24T03:04:40.411Z,77.51
2022-10-24T03:10:21.468Z,87.98
2022-10-24T03:13:10.701Z,82.18
2022-10-24T03:15:58.685Z,94.67
2022-10-24T03:18:46.571Z,99.32
2022-10-24T03:21:34.709Z,88.49
2022-10-24T03:24:31.221Z,84.66
2022-10-24T03:27:31.405Z,83.35
2022-10-24T03:30:20.853Z,96.15
2022-10-24T03:33:08.872Z,100.00
2022-10-24T03:35:56.894Z,100.00
2022-10-24T03:38:44.790Z,100.00
2022-10-24T03:41:32.688Z,100.00
2022-10-24T03:44:20.628Z,100.00
2022-10-24T03:47:09.954Z,100.00
2022-10-24T03:49:57.861Z,97.75
2022-10-24T03:52:47.473Z,92.53
2022-10-24T03:55:36.093Z,84.37
2022-10-24T03:58:24.056Z,81.61
2022-10-24T04:01:17.409Z,79.66
2022-10-24T04:04:06.954Z,78.75
2022-10-24T04:06:54.846Z,75.90
2022-10-24T04:09:42.766Z,75.27
2022-10-24T04:12:30.722Z,73.70
2022-10-24T04:15:18.644Z,74.86
2022-10-24T04:18:08.204Z,74.88
2022-10-24T04:20:57.424Z,76.13
2022-10-24T04:23:45.587Z,75.89
2022-10-24T04:26:33.483Z,74.58
2022-10-24T04:29:21.560Z,73.19
2022-10-24T04:32:09.515Z,75.01
2022-10-24T04:34:57.404Z,72.88
2022-10-24T04:37:46.666Z,73.28
2022-10-24T04:40:34.560Z,76.48
2022-10-24T04:43:22.977Z,74.17
2022-10-24T04:46:11.079Z,74.26
2022-10-24T04:48:59.007Z,73.62
2022-10-24T04:51:46.887Z,74.68
2022-10-24T04:54:36.352Z,73.60
2022-10-24T04:57:24.283Z,73.81
2022-10-24T05:00:13.122Z,72.24
2022-10-24T05:03:01.112Z,73.25
2022-10-24T05:05:49.173Z,74.29
2022-10-24T05:08:37.138Z,75.08
2022-10-24T05:11:26.396Z,77.72
2022-10-24T05:14:15.101Z,77.13
2022-10-24T05:17:03.030Z,78.12
2022-10-24T05:19:50.929Z,77.11
2022-10-24T05:22:38.882Z,77.76
2022-10-24T05:25:26.789Z,79.00
2022-10-24T05:28:16.010Z,79.16
2022-10-24T05:31:04.237Z,77.87
2022-10-24T05:33:52.271Z,77.85
2022-10-24T05:36:40.168Z,79.97
2022-10-24T05:39:28.125Z,83.21
2022-10-24T05:42:16.059Z,84.70
2022-10-24T05:45:06.323Z,83.50
2022-10-24T05:47:54.303Z,83.17
2022-10-24T05:50:42.750Z,83.65
2022-10-24T05:53:30.712Z,85.46
2022-10-24T05:56:18.592Z,84.00
2022-10-24T05:59:06.498Z,85.55
2022-10-24T06:01:55.876Z,86.37
2022-10-24T06:04:23.602Z,87.50
2022-10-24T06:06:51.386Z,86.71
2022-10-24T06:09:19.092Z,88.33
2022-10-24T06:11:46.697Z,87.88
2022-10-24T06:14:14.362Z,89.87
2022-10-24T06:16:42.008Z,89.90
2022-10-24T06:19:11.046Z,90.46
2022-10-24T06:21:38.662Z,92.45
2022-10-24T06:24:06.551Z,94.05
2022-10-24T06:26:34.164Z,95.18
2022-10-24T06:29:01.779Z,96.50
2022-10-24T06:31:29.535Z,95.96
2022-10-24T06:33:57.160Z,99.01
2022-10-24T06:36:28.101Z,100.00
2022-10-24T06:38:58.476Z,99.83
2022-10-24T06:41:26.168Z,100.00
2022-10-24T06:43:56.258Z,100.00
2022-10-24T06:46:24.425Z,100.00
2022-10-24T06:48:54.543Z,100.00
2022-10-24T06:51:22.285Z,100.00
2022-10-24T06:53:51.533Z,100.00
2022-10-24T06:56:19.593Z,100.00
2022-10-24T06:58:47.225Z,100.00
2022-10-24T07:01:17.133Z,100.00
2022-10-24T07:03:45.566Z,100.00
2022-10-24T07:06:17.669Z,100.00
2022-10-24T07:08:45.909Z,100.00
2022-10-24T07:11:15.632Z,100.00
2022-10-24T07:13:43.220Z,100.00
2022-10-24T07:16:10.892Z,100.00
2022-10-24T07:18:38.935Z,100.00
2022-10-24T07:21:09.092Z,100.00
2022-10-24T07:23:36.991Z,100.00
2022-10-24T07:26:07.066Z,100.00
2022-10-24T07:28:37.329Z,100.00
2022-10-24T07:31:05.364Z,100.00
2022-10-24T07:33:34.233Z,100.00
2022-10-24T07:36:01.949Z,100.00
2022-10-24T07:38:29.589Z,100.00
2022-10-24T07:40:57.226Z,100.00
2022-10-24T07:43:24.824Z,100.00
2022-10-24T07:45:53.874Z,100.00
2022-10-24T07:48:21.489Z,100.00
2022-10-24T07:50:49.575Z,100.00
2022-10-24T07:53:17.689Z,100.00
2022-10-24T07:55:46.122Z,100.00
2022-10-24T07:58:14.696Z,100.00
2022-10-24T08:00:45.228Z,100.00
2022-10-24T08:03:14.640Z,100.00
2022-10-24T08:05:42.790Z,100.00
2022-10-24T08:08:27.392Z,100.00
2022-10-24T08:10:59.013Z,100.00
2022-10-24T08:13:26.672Z,100.00
2022-10-24T08:15:54.326Z,100.00
2022-10-24T08:18:23.413Z,100.00
2022-10-24T08:20:59.038Z,100.00
2022-10-24T08:23:26.773Z,100.00
2022-10-24T08:25:54.694Z,100.00
2022-10-24T08:28:23.436Z,100.00
2022-10-24T08:30:58.594Z,100.00
2022-10-24T08:33:27.649Z,100.00
2022-10-24T08:35:59.587Z,100.00
2022-10-24T08:38:27.569Z,100.00
2022-10-24T08:40:55.832Z,100.00
2022-10-24T08:43:24.676Z,100.00
2022-10-24T08:46:03.306Z,100.00
2022-10-24T08:48:38.647Z,100.00
2022-10-24T08:51:20.564Z,100.00
2022-10-24T08:53:51.237Z,100.00
2022-10-24T08:56:19.490Z,100.00
2022-10-24T08:58:48.072Z,100.00
2022-10-24T09:01:31.021Z,100.00
2022-10-24T09:04:04.121Z,100.00
2022-10-24T09:06:33.689Z,100.00
2022-10-24T09:09:03.279Z,100.00
2022-10-24T09:11:40.412Z,100.00
2022-10-24T09:14:13.829Z,100.00
2022-10-24T09:16:43.386Z,100.00
2022-10-24T09:19:16.262Z,100.00
2022-10-24T09:21:45.406Z,100.00
2022-10-24T09:24:25.184Z,100.00
2022-10-24T09:26:53.584Z,100.00
2022-10-24T09:29:21.314Z,100.00
2022-10-24T09:31:50.040Z,100.00
2022-10-24T09:34:18.980Z,100.00
2022-10-24T09:36:46.830Z,100.00
2022-10-24T09:39:29.765Z,100.00
2022-10-24T09:41:58.622Z,100.00
2022-10-24T09:44:33.406Z,100.00
2022-10-24T09:47:02.748Z,100.00
2022-10-24T09:49:36.255Z,100.00
2022-10-24T09:52:09.231Z,100.00
2022-10-24T09:54:37.595Z,100.00
2022-10-24T09:57:08.623Z,100.00
2022-10-24T09:59:41.464Z,100.00
2022-10-24T10:02:24.294Z,100.00
2022-10-24T10:05:19.182Z,100.00
2022-10-24T10:07:49.878Z,100.00
2022-10-24T10:10:28.036Z,100.00
2022-10-24T10:13:05.744Z,100.00
2022-10-24T10:15:37.731Z,100.00
2022-10-24T10:18:21.487Z,100.00
2022-10-24T10:21:10.884Z,100.00
2022-10-24T10:23:41.308Z,100.00
2022-10-24T10:26:22.868Z,100.00
2022-10-24T10:28:59.845Z,100.00
2022-10-24T10:31:35.186Z,100.00
2022-10-24T10:34:21.758Z,100.00
2022-10-24T10:37:22.885Z,100.00
2022-10-24T10:40:06.377Z,100.00
2022-10-24T10:42:41.838Z,100.00
2022-10-24T10:45:19.164Z,100.00
2022-10-24T10:48:01.866Z,100.00
2022-10-24T10:50:37.501Z,100.00
2022-10-24T10:53:21.435Z,100.00
2022-10-24T10:55:56.417Z,100.00
2022-10-24T10:58:34.198Z,100.00
2022-10-24T11:01:13.695Z,100.00
2022-10-24T11:03:48.887Z,100.00
2022-10-24T11:06:29.458Z,100.00
2022-10-24T11:09:19.493Z,100.00
2022-10-24T11:11:53.119Z,100.00
2022-10-24T11:14:30.705Z,100.00
2022-10-24T11:17:03.846Z,100.00
2022-10-24T11:19:40.300Z,100.00
2022-10-24T11:22:16.670Z,100.00
2022-10-24T11:24:52.118Z,100.00
2022-10-24T11:27:26.466Z,100.00
2022-10-24T11:29:57.722Z,100.00
2022-10-24T11:32:33.482Z,100.00
2022-10-24T11:35:06.120Z,100.00
2022-10-24T11:37:37.526Z,100.00
2022-10-24T11:40:13.268Z,100.00
2022-10-24T11:42:47.534Z,100.00
2022-10-24T11:45:17.973Z,100.00
2022-10-24T11:48:02.835Z,100.00
2022-10-24T11:50:37.085Z,100.00
2022-10-24T11:53:14.512Z,100.00
2022-10-24T11:55:50.045Z,98.57
2022-10-24T11:58:21.509Z,97.10
2022-10-24T12:01:11.197Z,96.51
2022-10-24T12:04:02.955Z,96.11
2022-10-24T12:06:57.883Z,97.95
2022-10-24T12:09:45.623Z,93.69
2022-10-24T12:12:32.695Z,99.09
2022-10-24T12:15:18.655Z,93.54
2022-10-24T12:18:05.706Z,95.86
2022-10-24T12:20:34.484Z,91.52
2022-10-24T12:23:04.155Z,91.62
2022-10-24T12:25:35.360Z,92.74
2022-10-24T12:28:08.406Z,97.68
2022-10-24T12:30:37.714Z,98.17
2022-10-24T12:33:12.214Z,95.55
2022-10-24T12:35:51.851Z,92.14
2022-10-24T12:39:04.346Z,90.39
2022-10-24T12:41:43.127Z,90.67
2022-10-24T12:44:42.045Z,86.10
2022-10-24T12:47:32.360Z,86.94
2022-10-24T12:50:21.566Z,91.99
2022-10-24T12:53:04.622Z,90.97
2022-10-24T12:56:11.349Z,91.91
2022-10-24T12:58:43.004Z,90.53
2022-10-24T13:01:25.808Z,88.60
2022-10-24T13:04:17.634Z,86.57
2022-10-24T13:07:01.498Z,85.34
2022-10-24T13:09:39.405Z,83.55
2022-10-24T13:12:20.285Z,82.51
2022-10-24T13:15:02.447Z,80.17
2022-10-24T13:17:40.397Z,82.49
2022-10-24T13:20:19.109Z,81.58
2022-10-24T13:22:50.768Z,82.92
2022-10-24T13:25:21.470Z,83.51
2022-10-24T13:28:23.274Z,85.69
2022-10-24T13:30:53.227Z,85.98
2022-10-24T13:33:42.389Z,87.80
2022-10-24T13:36:17.607Z,90.33
2022-10-24T13:38:50.221Z,92.10
2022-10-24T13:41:26.265Z,91.21
2022-10-24T13:43:57.023Z,89.57
2022-10-24T13:46:32.772Z,92.05
2022-10-24T13:49:03.067Z,91.86
2022-10-24T13:51:41.753Z,92.54
2022-10-24T13:54:15.944Z,93.04
2022-10-24T13:56:46.265Z,94.58
2022-10-24T13:59:30.989Z,94.72
2022-10-24T14:02:00.683Z,94.17
2022-10-24T14:04:30.919Z,95.59
2022-10-24T14:07:03.809Z,96.61
2022-10-24T14:09:39.588Z,95.80
2022-10-24T14:12:07.481Z,97.91
2022-10-24T14:14:41.031Z,93.41
2022-10-24T14:17:23.322Z,93.76
2022-10-24T14:19:56.028Z,93.56
2022-10-24T14:22:27.125Z,89.38
2022-10-24T14:24:55.593Z,88.91
2022-10-24T14:27:24.408Z,88.88
2022-10-24T14:29:59.535Z,87.08
2022-10-24T14:32:28.959Z,85.12
2022-10-24T14:37:31.571Z,86.15
2022-10-24T14:40:01.040Z,88.72
2022-10-24T14:42:29.657Z,87.85
2022-10-24T14:44:58.601Z,87.42
2022-10-24T14:47:29.898Z,88.25
2022-10-24T14:50:01.833Z,87.95
2022-10-24T14:52:36.484Z,90.25
2022-10-24T14:55:07.162Z,89.31
2022-10-24T14:57:37.803Z,88.86
2022-10-24T15:00:09.691Z,90.60
2022-10-24T15:02:42.916Z,92.14
2022-10-24T15:05:29.943Z,91.54
2022-10-24T15:08:21.178Z,93.19
2022-10-24T15:10:50.537Z,92.18
2022-10-24T15:13:21.447Z,91.93
2022-10-24T15:15:53.317Z,90.72
2022-10-24T15:18:23.598Z,90.61
2022-10-24T15:20:55.806Z,89.18
2022-10-24T15:23:28.162Z,86.52
2022-10-24T15:26:02.422Z,85.43
2022-10-24T15:28:39.337Z,85.93
2022-10-24T15:31:11.262Z,88.19
2022-10-24T15:36:18.291Z,94.47
2022-10-24T15:38:46.302Z,97.35
2022-10-24T15:41:14.077Z,98.67
2022-10-24T15:43:41.976Z,100.00
2022-10-24T15:46:09.815Z,100.00
2022-10-24T15:48:38.421Z,100.00
2022-10-24T15:51:06.753Z,100.00
2022-10-24T15:53:35.882Z,100.00
2022-10-24T15:56:03.692Z,100.00
2022-10-24T15:58:31.557Z,100.00
2022-10-24T16:01:00.189Z,100.00
2022-10-24T16:03:28.104Z,100.00
2022-10-24T16:05:58.123Z,100.00
2022-10-24T16:08:26.169Z,100.00
2022-10-24T16:10:55.401Z,100.00
2022-10-24T16:13:23.998Z,100.00
2022-10-24T16:15:51.886Z,100.00
2022-10-24T16:18:19.788Z,100.00
2022-10-24T16:20:47.688Z,100.00
2022-10-24T16:23:17.468Z,100.00
2022-10-24T16:25:45.570Z,100.00
2022-10-24T16:28:15.686Z,100.00
2022-10-24T16:30:43.633Z,100.00
2022-10-24T16:33:11.491Z,100.00
2022-10-24T16:35:40.376Z,100.00
2022-10-24T16:38:09.777Z,100.00
2022-10-24T16:40:42.372Z,100.00
2022-10-24T16:43:15.390Z,100.00
2022-10-24T16:45:46.988Z,100.00
2022-10-24T16:48:14.912Z,100.00
2022-10-24T16:50:46.486Z,100.00
2022-10-24T16:53:18.196Z,100.00
2022-10-24T16:55:48.521Z,100.00
2022-10-24T16:58:16.363Z,100.00
2022-10-24T17:00:45.947Z,100.00
2022-10-24T17:03:14.024Z,100.00
2022-10-24T17:05:43.933Z,100.00
2022-10-24T17:08:11.546Z,100.00
2022-10-24T17:10:39.257Z,100.00
2022-10-24T17:13:07.574Z,100.00
2022-10-24T17:15:35.551Z,100.00
2022-10-24T17:18:04.834Z,100.00
2022-10-24T17:20:32.492Z,100.00
2022-10-24T17:23:02.982Z,100.00
2022-10-24T17:25:33.433Z,100.00
2022-10-24T17:28:01.253Z,100.00
2022-10-24T17:30:29.681Z,100.00
2022-10-24T17:32:58.161Z,100.00
2022-10-24T17:35:28.481Z,100.00
2022-10-24T17:38:08.690Z,100.00
2022-10-24T17:40:42.517Z,100.00
2022-10-24T17:43:19.133Z,100.00
2022-10-24T17:45:47.342Z,100.00
2022-10-24T17:48:15.233Z,100.00
2022-10-24T17:50:44.353Z,100.00
2022-10-24T17:53:12.675Z,100.00
2022-10-24T17:55:46.316Z,100.00
2022-10-24T17:58:15.773Z,100.00
2022-10-24T18:00:43.939Z,100.00
2022-10-24T18:03:11.732Z,100.00
2022-10-24T18:05:39.838Z,100.00
2022-10-24T18:08:10.683Z,100.00
2022-10-24T18:10:38.941Z,100.00
2022-10-24T18:13:07.613Z,100.00
2022-10-24T18:15:35.318Z,100.00
2022-10-24T18:18:02.937Z,100.00
2022-10-24T18:20:32.022Z,100.00
2022-10-24T18:23:00.463Z,100.00
2022-10-24T18:25:29.594Z,100.00
2022-10-24T18:27:57.527Z,100.00
2022-10-24T18:30:27.274Z,100.00
2022-10-24T18:32:54.989Z,100.00
2022-10-24T18:35:22.863Z,100.00
2022-10-24T18:40:23.115Z,100.00
2022-10-24T18:42:56.082Z,100.00
2022-10-24T18:45:27.041Z,100.00
2022-10-24T18:47:55.275Z,100.00
2022-10-24T18:50:24.871Z,100.00
2022-10-24T18:52:59.566Z,100.00
2022-10-24T18:55:29.204Z,100.00
2022-10-24T18:57:59.443Z,100.00
2022-10-24T19:00:29.608Z,100.00
2022-10-24T19:03:11.945Z,100.00
2022-10-24T19:05:43.930Z,100.00
2022-10-24T19:08:14.347Z,100.00
2022-10-24T19:10:42.254Z,100.00
2022-10-24T19:13:11.449Z,100.00
2022-10-24T19:15:43.671Z,100.00
2022-10-24T19:18:14.784Z,100.00
2022-10-24T19:20:42.648Z,100.00
2022-10-24T19:23:12.288Z,100.00
2022-10-24T19:25:40.017Z,100.00
2022-10-24T19:28:08.247Z,100.00
2022-10-24T19:30:38.004Z,100.00
2022-10-24T19:33:05.686Z,100.00
2022-10-24T19:35:33.334Z,100.00
2022-10-24T19:38:00.922Z,100.00
2022-10-24T19:40:28.593Z,100.00
2022-10-24T19:42:56.212Z,100.00
2022-10-24T19:45:25.189Z,100.00
2022-10-24T19:47:55.985Z,100.00
2022-10-24T19:50:23.684Z,100.00
2022-10-24T19:52:51.285Z,100.00
2022-10-24T19:55:18.995Z,100.00
2022-10-24T19:57:46.816Z,100.00
2022-10-24T20:00:15.205Z,100.00
2022-10-24T20:02:42.866Z,100.00
2022-10-24T20:05:30.866Z,100.00
2022-10-24T20:08:18.787Z,100.00
2022-10-24T20:11:07.274Z,100.00
2022-10-24T20:13:55.183Z,100.00
2022-10-24T20:16:43.100Z,100.00
2022-10-24T20:19:31.134Z,100.00
2022-10-24T20:22:20.413Z,100.00
2022-10-24T20:25:08.846Z,100.00
2022-10-24T20:27:56.750Z,100.00
2022-10-24T20:30:47.676Z,100.00
2022-10-24T20:33:35.858Z,100.00
2022-10-24T20:36:23.734Z,100.00
2022-10-24T20:39:13.496Z,100.00
2022-10-24T20:42:01.367Z,100.00
2022-10-24T20:44:49.231Z,100.00
2022-10-24T20:47:37.135Z,100.00
2022-10-24T20:50:25.012Z,100.00
2022-10-24T20:53:12.915Z,100.00
2022-10-24T20:56:06.331Z,100.00
2022-10-24T20:58:56.078Z,100.00
2022-10-24T21:01:44.267Z,100.00
2022-10-24T21:04:32.343Z,100.00
2022-10-24T21:07:20.186Z,100.00
2022-10-24T21:10:08.462Z,100.00
2022-10-24T21:12:57.750Z,100.00
2022-10-24T21:15:45.653Z,100.00
2022-10-24T21:18:33.546Z,100.00
2022-10-24T21:21:22.559Z,100.00
2022-10-24T21:24:15.206Z,100.00
2022-10-24T21:27:03.140Z,100.00
2022-10-24T21:29:52.392Z,100.00
2022-10-24T21:32:40.398Z,100.00
2022-10-24T21:35:28.325Z,100.00
2022-10-24T21:38:16.198Z,100.00
2022-10-24T21:41:05.807Z,100.00
2022-10-24T21:43:54.770Z,100.00
2022-10-24T21:46:44.301Z,100.00
2022-10-24T21:49:32.196Z,100.00
2022-10-24T21:52:20.061Z,100.00
2022-10-24T21:55:08.596Z,100.00
2022-10-24T21:57:56.475Z,100.00
2022-10-24T22:00:44.375Z,100.00
2022-10-24T22:03:33.740Z,100.00
2022-10-24T22:06:22.330Z,100.00
2022-10-24T22:09:13.264Z,100.00
2022-10-24T22:12:01.117Z,100.00
2022-10-24T22:14:49.464Z,100.00
2022-10-24T22:17:37.457Z,100.00
2022-10-24T22:20:26.725Z,100.00
2022-10-24T22:23:14.948Z,100.00
2022-10-24T22:26:02.824Z,100.00
2022-10-24T22:28:50.767Z,100.00
2022-10-24T22:31:39.407Z,100.00
2022-10-24T22:34:28.364Z,100.00
2022-10-24T22:37:25.567Z,100.00
2022-10-24T22:40:23.109Z,100.00
2022-10-24T22:43:12.019Z,100.00
2022-10-24T22:46:12.257Z,100.00
2022-10-24T22:49:05.355Z,100.00
2022-10-24T22:51:53.843Z,100.00
2022-10-24T22:54:43.888Z,100.00
2022-10-24T22:57:32.469Z,100.00
2022-10-24T23:00:21.511Z,100.00
2022-10-24T23:03:17.086Z,100.00
2022-10-24T23:06:11.718Z,100.00
2022-10-24T23:08:59.594Z,100.00
2022-10-24T23:11:49.515Z,100.00
2022-10-24T23:14:37.908Z,100.00
2022-10-24T23:17:27.794Z,100.00
2022-10-24T23:20:25.142Z,100.00
2022-10-24T23:23:28.286Z,100.00
2022-10-24T23:26:27.125Z,100.00
2022-10-24T23:29:25.739Z,100.00
2022-10-24T23:32:20.367Z,100.00
2022-10-24T23:35:09.953Z,100.00
2022-10-24T23:37:58.288Z,100.00
2022-10-24T23:40:46.738Z,100.00
2022-10-24T23:43:35.102Z,100.00
2022-10-24T23:46:29.533Z,100.00
2022-10-24T23:49:25.630Z,100.00
2022-10-24T23:52:23.748Z,100.00
2022-10-24T23:55:13.426Z,100.00
2022-10-24T23:58:01.875Z,100.00
